createdAt,value
2019-02-11T00:00:28.805Z,12.33
2019-02-11T00:01:32.596Z,11.13
2019-02-11T00:02:36.395Z,13.13
2019-02-11T00:03:40.074Z,11.78
2019-02-11T00:04:44.086Z,12.60
2019-02-11T00:05:47.726Z,11.07
2019-02-11T00:06:51.498Z,12.83
2019-02-11T00:07:55.146Z,12.13
2019-02-11T00:08:58.859Z,12.13
2019-02-11T00:10:02.962Z,13.33
2019-02-11T00:11:06.661Z,12.65
2019-02-11T00:12:10.452Z,12.03
2019-02-11T00:13:14.119Z,12.95
2019-02-11T00:14:17.841Z,12.00
2019-02-11T00:15:21.505Z,13.30
2019-02-11T00:16:25.227Z,12.78
2019-02-11T00:17:28.995Z,14.30
2019-02-11T00:18:32.715Z,13.22
2019-02-11T00:19:37.048Z,12.20
2019-02-11T00:20:40.713Z,12.80
2019-02-11T00:21:44.414Z,12.70
2019-02-11T00:22:48.135Z,12.10
2019-02-11T00:23:51.774Z,13.22
2019-02-11T00:24:55.487Z,11.80
2019-02-11T00:25:59.284Z,11.70
2019-02-11T00:27:03.002Z,11.87
2019-02-11T00:28:06.769Z,13.27
2019-02-11T00:29:10.523Z,11.47
2019-02-11T00:30:14.256Z,11.12
2019-02-11T00:31:18.023Z,11.45
2019-02-11T00:32:21.849Z,11.40
2019-02-11T00:33:25.542Z,11.30
2019-02-11T00:34:29.237Z,12.03
2019-02-11T00:35:32.938Z,11.07
2019-02-11T00:36:36.630Z,11.50
2019-02-11T00:37:40.316Z,13.15
2019-02-11T00:38:44.009Z,13.45
2019-02-11T00:39:47.703Z,12.47
2019-02-11T00:40:51.398Z,12.00
2019-02-11T00:41:55.089Z,12.73
2019-02-11T00:42:58.786Z,11.90
2019-02-11T00:44:02.474Z,13.53
2019-02-11T00:45:07.827Z,12.53
2019-02-11T00:46:11.498Z,12.47
2019-02-11T00:47:15.157Z,12.25
2019-02-11T00:48:18.808Z,12.07
2019-02-11T00:49:22.681Z,13.10
2019-02-11T00:50:26.473Z,13.27
2019-02-11T00:51:30.501Z,12.60
2019-02-11T00:52:34.175Z,12.78
2019-02-11T00:53:37.897Z,13.10
2019-02-11T00:54:41.656Z,13.15
2019-02-11T00:55:45.388Z,14.45
2019-02-11T00:56:49.059Z,13.50
2019-02-11T00:57:53.247Z,14.03
2019-02-11T00:58:56.942Z,12.23
2019-02-11T01:00:00.641Z,12.25
2019-02-11T01:01:04.432Z,11.63
2019-02-11T01:02:08.433Z,11.70
2019-02-11T01:03:12.411Z,11.57
2019-02-11T01:04:16.129Z,12.53
2019-02-11T01:05:19.841Z,11.88
2019-02-11T01:06:23.617Z,12.40
2019-02-11T01:07:27.338Z,11.40
2019-02-11T01:08:30.987Z,11.57
2019-02-11T01:09:34.797Z,11.60
2019-02-11T01:10:38.498Z,12.65
2019-02-11T01:11:42.230Z,12.13
2019-02-11T01:12:46.213Z,12.75
2019-02-11T01:13:51.554Z,11.85
2019-02-11T01:14:55.476Z,11.75
2019-02-11T01:15:59.311Z,11.30
2019-02-11T01:17:03.110Z,10.58
2019-02-11T01:18:06.765Z,11.88
2019-02-11T01:19:10.459Z,12.05
2019-02-11T01:20:14.040Z,12.07
2019-02-11T01:21:18.193Z,12.93
2019-02-11T01:22:21.988Z,11.22
2019-02-11T01:23:25.677Z,11.40
2019-02-11T01:24:29.476Z,10.75
2019-02-11T01:25:33.167Z,10.53
2019-02-11T01:26:36.965Z,11.38
2019-02-11T01:27:40.754Z,10.35
2019-02-11T01:28:44.415Z,11.10
2019-02-11T01:29:48.256Z,10.72
2019-02-11T01:30:51.908Z,11.25
2019-02-11T01:31:55.572Z,11.68
2019-02-11T01:32:59.227Z,10.38
2019-02-11T01:34:02.916Z,11.22
2019-02-11T01:35:07.690Z,10.78
2019-02-11T01:36:11.347Z,10.55
2019-02-11T01:37:15.126Z,14.40
2019-02-11T01:38:18.822Z,12.13
2019-02-11T01:39:22.510Z,12.07
2019-02-11T01:40:26.288Z,10.98
2019-02-11T01:41:29.995Z,11.57
2019-02-11T01:42:33.663Z,11.00
2019-02-11T01:43:37.488Z,11.05
2019-02-11T01:44:41.145Z,11.43
2019-02-11T01:45:44.902Z,11.20
2019-02-11T01:46:48.566Z,10.70
2019-02-11T01:47:52.222Z,10.03
2019-02-11T01:48:55.947Z,9.78
2019-02-11T01:49:59.642Z,9.93
2019-02-11T01:51:03.541Z,9.03
2019-02-11T01:52:07.233Z,10.13
2019-02-11T01:53:11.336Z,10.43
2019-02-11T01:54:15.031Z,11.03
2019-02-11T01:55:18.720Z,10.80
2019-02-11T01:56:22.518Z,12.18
2019-02-11T01:57:26.619Z,11.18
2019-02-11T01:58:30.317Z,12.05
2019-02-11T01:59:33.985Z,12.33
2019-02-11T02:00:37.703Z,11.30
2019-02-11T02:01:41.500Z,12.23
2019-02-11T02:02:45.162Z,11.45
2019-02-11T02:03:48.882Z,11.65
2019-02-11T02:04:52.575Z,11.12
2019-02-11T02:05:56.252Z,11.88
2019-02-11T02:06:59.950Z,12.23
2019-02-11T02:08:03.642Z,11.25
2019-02-11T02:09:08.094Z,11.73
2019-02-11T02:10:14.307Z,12.13
2019-02-11T02:11:18.013Z,12.73
2019-02-11T02:12:21.807Z,12.78
2019-02-11T02:13:25.465Z,11.43
2019-02-11T02:14:29.191Z,12.05
2019-02-11T02:15:32.887Z,11.83
2019-02-11T02:16:36.577Z,11.48
2019-02-11T02:17:40.475Z,11.15
2019-02-11T02:18:44.172Z,12.18
2019-02-11T02:19:47.964Z,11.30
2019-02-11T02:20:52.070Z,11.83
2019-02-11T02:21:55.736Z,11.12
2019-02-11T02:22:59.455Z,10.60
2019-02-11T02:24:03.151Z,11.25
2019-02-11T02:25:08.707Z,11.40
2019-02-11T02:26:12.360Z,11.73
2019-02-11T02:27:16.070Z,12.10
2019-02-11T02:28:19.865Z,11.38
2019-02-11T02:29:23.520Z,11.73
2019-02-11T02:30:27.048Z,11.85
2019-02-11T02:31:30.637Z,11.95
2019-02-11T02:32:34.292Z,11.40
2019-02-11T02:33:38.024Z,11.53
2019-02-11T02:34:41.688Z,11.57
2019-02-11T02:35:45.207Z,12.07
2019-02-11T02:36:49.271Z,11.30
2019-02-11T02:37:53.010Z,12.73
2019-02-11T02:38:56.687Z,11.22
2019-02-11T02:40:00.720Z,12.10
2019-02-11T02:41:04.493Z,12.18
2019-02-11T02:42:08.186Z,11.85
2019-02-11T02:43:11.847Z,11.60
2019-02-11T02:44:15.586Z,12.70
2019-02-11T02:45:19.265Z,11.60
2019-02-11T02:46:23.080Z,12.47
2019-02-11T02:47:26.754Z,12.90
2019-02-11T02:48:30.447Z,11.53
2019-02-11T02:49:34.284Z,12.13
2019-02-11T02:50:37.836Z,12.45
2019-02-11T02:51:41.529Z,12.18
2019-02-11T02:52:45.248Z,12.25
2019-02-11T02:53:48.889Z,13.00
2019-02-11T02:54:52.586Z,12.68
2019-02-11T02:55:56.299Z,12.70
2019-02-11T02:56:59.962Z,14.10
2019-02-11T02:58:03.666Z,13.10
2019-02-11T02:59:07.387Z,12.65
2019-02-11T03:00:12.096Z,12.78
2019-02-11T03:01:16.026Z,12.88
2019-02-11T03:02:19.787Z,13.53
2019-02-11T03:03:23.470Z,15.70
2019-02-11T03:04:27.584Z,16.02
2019-02-11T03:05:31.484Z,16.02
2019-02-11T03:06:35.177Z,16.32
2019-02-11T03:07:38.895Z,16.40
2019-02-11T03:08:42.670Z,17.37
2019-02-11T03:09:46.693Z,16.65
2019-02-11T03:10:50.331Z,17.35
2019-02-11T03:11:53.954Z,17.17
2019-02-11T03:12:57.748Z,16.48
2019-02-11T03:14:05.603Z,15.45
2019-02-11T03:15:09.157Z,15.00
2019-02-11T03:16:12.915Z,14.38
2019-02-11T03:17:17.022Z,13.70
2019-02-11T03:18:20.691Z,13.28
2019-02-11T03:19:24.415Z,13.22
2019-02-11T03:20:28.135Z,14.10
2019-02-11T03:21:31.836Z,13.40
2019-02-11T03:22:35.446Z,12.93
2019-02-11T03:23:39.166Z,13.95
2019-02-11T03:24:42.978Z,13.40
2019-02-11T03:25:47.081Z,13.30
2019-02-11T03:26:51.285Z,12.95
2019-02-11T03:27:55.078Z,13.65
2019-02-11T03:28:58.878Z,13.20
2019-02-11T03:30:02.576Z,13.93
2019-02-11T03:31:06.163Z,14.05
2019-02-11T03:32:09.870Z,13.93
2019-02-11T03:33:13.553Z,15.03
2019-02-11T03:34:17.280Z,14.65
2019-02-11T03:35:20.872Z,14.13
2019-02-11T03:36:24.627Z,15.00
2019-02-11T03:37:28.651Z,14.78
2019-02-11T03:38:32.422Z,14.93
2019-02-11T03:39:36.218Z,14.93
2019-02-11T03:40:39.911Z,15.83
2019-02-11T03:41:43.656Z,14.87
2019-02-11T03:42:47.322Z,15.30
2019-02-11T03:43:51.409Z,15.85
2019-02-11T03:44:54.978Z,15.43
2019-02-11T03:45:58.686Z,16.60
2019-02-11T03:47:02.482Z,15.40
2019-02-11T03:48:06.279Z,16.05
2019-02-11T03:49:10.068Z,15.53
2019-02-11T03:50:13.762Z,16.75
2019-02-11T03:51:17.426Z,16.57
2019-02-11T03:52:21.150Z,16.67
2019-02-11T03:53:24.947Z,16.35
2019-02-11T03:54:28.746Z,15.60
2019-02-11T03:55:32.775Z,17.45
2019-02-11T03:56:36.539Z,18.57
2019-02-11T03:57:40.743Z,18.75
2019-02-11T03:58:44.440Z,19.17
2019-02-11T03:59:48.092Z,20.72
2019-02-11T04:00:51.924Z,18.20
2019-02-11T04:01:55.618Z,17.27
2019-02-11T04:02:59.824Z,17.50
2019-02-11T04:04:03.513Z,18.73
2019-02-11T04:05:07.978Z,16.62
2019-02-11T04:06:11.629Z,16.70
2019-02-11T04:07:15.319Z,17.62
2019-02-11T04:08:19.045Z,17.42
2019-02-11T04:09:22.698Z,18.12
2019-02-11T04:10:26.498Z,17.65
2019-02-11T04:11:30.156Z,17.75
2019-02-11T04:12:33.883Z,19.20
2019-02-11T04:13:37.677Z,17.25
2019-02-11T04:14:41.383Z,17.95
2019-02-11T04:15:45.061Z,19.90
2019-02-11T04:16:48.756Z,27.50
2019-02-11T04:17:52.407Z,21.02
2019-02-11T04:18:56.067Z,19.07
2019-02-11T04:19:59.835Z,20.35
2019-02-11T04:21:03.535Z,19.00
2019-02-11T04:22:08.407Z,18.95
2019-02-11T04:23:12.375Z,17.65
2019-02-11T04:24:16.159Z,17.67
2019-02-11T04:25:19.937Z,17.32
2019-02-11T04:26:23.600Z,16.65
2019-02-11T04:27:27.324Z,16.55
2019-02-11T04:28:31.223Z,17.52
2019-02-11T04:29:34.917Z,15.80
2019-02-11T04:30:38.710Z,17.17
2019-02-11T04:31:42.405Z,15.65
2019-02-11T04:32:46.095Z,15.08
2019-02-11T04:33:49.755Z,17.25
2019-02-11T04:34:53.489Z,15.40
2019-02-11T04:35:57.279Z,15.25
2019-02-11T04:37:01.074Z,15.00
2019-02-11T04:38:04.766Z,15.53
2019-02-11T04:39:08.886Z,15.23
2019-02-11T04:40:12.976Z,15.15
2019-02-11T04:41:16.673Z,16.42
2019-02-11T04:42:20.326Z,15.58
2019-02-11T04:43:24.287Z,18.00
2019-02-11T04:44:33.989Z,18.60
2019-02-11T04:45:33.387Z,18.07
2019-02-11T04:46:37.076Z,18.48
2019-02-11T04:47:40.771Z,18.37
2019-02-11T04:48:44.700Z,18.05
2019-02-11T04:49:48.363Z,17.30
2019-02-11T04:50:52.017Z,17.65
2019-02-11T04:51:55.746Z,27.35
2019-02-11T04:52:59.410Z,26.25
2019-02-11T04:54:03.049Z,25.50
2019-02-11T04:55:08.990Z,25.48
2019-02-11T04:56:12.671Z,26.50
2019-02-11T04:57:16.372Z,26.42
2019-02-11T04:58:20.144Z,27.48
2019-02-11T04:59:23.854Z,30.50
2019-02-11T05:00:27.894Z,35.73
2019-02-11T05:01:31.923Z,34.03
2019-02-11T05:02:35.628Z,33.60
2019-02-11T05:03:39.294Z,31.85
2019-02-11T05:04:43.039Z,29.27
2019-02-11T05:05:46.728Z,23.92
2019-02-11T05:06:50.421Z,22.98
2019-02-11T05:07:54.216Z,23.25
2019-02-11T05:08:57.868Z,21.87
2019-02-11T05:10:01.609Z,21.82
2019-02-11T05:11:05.304Z,21.37
2019-02-11T05:12:08.891Z,20.45
2019-02-11T05:13:12.918Z,19.07
2019-02-11T05:14:16.685Z,21.05
2019-02-11T05:15:20.791Z,21.10
2019-02-11T05:16:24.495Z,22.65
2019-02-11T05:17:28.195Z,29.32
2019-02-11T05:18:31.971Z,27.62
2019-02-11T05:19:35.662Z,24.75
2019-02-11T05:20:39.356Z,26.30
2019-02-11T05:21:43.022Z,28.15
2019-02-11T05:22:46.744Z,29.27
2019-02-11T05:23:50.538Z,29.82
2019-02-11T05:24:54.273Z,27.60
2019-02-11T05:25:57.935Z,31.93
2019-02-11T05:27:01.620Z,29.90
2019-02-11T05:28:05.308Z,26.85
2019-02-11T05:29:09.106Z,25.23
2019-02-11T05:30:12.764Z,24.47
2019-02-11T05:31:16.499Z,22.82
2019-02-11T05:32:20.285Z,22.65
2019-02-11T05:33:23.975Z,21.37
2019-02-11T05:34:27.649Z,21.57
2019-02-11T05:35:31.371Z,25.55
2019-02-11T05:36:35.160Z,28.02
2019-02-11T05:37:38.817Z,29.30
2019-02-11T05:38:42.549Z,28.25
2019-02-11T05:39:46.449Z,29.20
2019-02-11T05:40:50.039Z,27.07
2019-02-11T05:41:53.735Z,25.40
2019-02-11T05:42:57.678Z,25.85
2019-02-11T05:44:01.454Z,23.40
2019-02-11T05:45:06.770Z,20.40
2019-02-11T05:46:10.497Z,20.97
2019-02-11T05:47:14.245Z,20.27
2019-02-11T05:48:18.048Z,21.25
2019-02-11T05:49:22.139Z,21.62
2019-02-11T05:50:26.251Z,26.00
2019-02-11T05:51:29.940Z,28.40
2019-02-11T05:52:33.633Z,27.90
2019-02-11T05:53:37.284Z,31.23
2019-02-11T05:54:41.022Z,35.20
2019-02-11T05:55:44.810Z,33.55
2019-02-11T05:56:48.501Z,32.90
2019-02-11T05:57:52.304Z,30.75
2019-02-11T05:58:56.096Z,31.97
2019-02-11T05:59:59.781Z,30.27
2019-02-11T06:01:03.591Z,29.52
2019-02-11T06:02:07.287Z,27.25
2019-02-11T06:03:10.979Z,25.85
2019-02-11T06:04:14.666Z,26.73
2019-02-11T06:05:18.384Z,30.30
2019-02-11T06:06:22.154Z,33.30
2019-02-11T06:07:25.863Z,34.78
2019-02-11T06:08:29.647Z,47.50
2019-02-11T06:09:33.316Z,69.35
2019-02-11T06:10:37.111Z,77.40
2019-02-11T06:11:40.799Z,72.03
2019-02-11T06:12:44.517Z,66.72
2019-02-11T06:13:48.214Z,65.20
2019-02-11T06:14:52.009Z,65.78
2019-02-11T06:15:55.661Z,68.78
2019-02-11T06:16:59.396Z,76.40
2019-02-11T06:18:03.159Z,73.70
2019-02-11T06:19:07.216Z,75.42
2019-02-11T06:20:11.251Z,67.58
2019-02-11T06:21:14.961Z,71.47
2019-02-11T06:22:18.780Z,53.42
2019-02-11T06:23:22.581Z,56.65
2019-02-11T06:24:26.245Z,65.05
2019-02-11T06:25:29.963Z,57.93
2019-02-11T06:26:33.621Z,50.98
2019-02-11T06:27:37.203Z,46.95
2019-02-11T06:28:40.902Z,42.25
2019-02-11T06:29:44.634Z,40.92
2019-02-11T06:30:48.302Z,41.85
2019-02-11T06:31:51.891Z,45.00
2019-02-11T06:32:55.510Z,50.98
2019-02-11T06:33:59.212Z,51.50
2019-02-11T06:35:02.999Z,47.85
2019-02-11T06:36:12.582Z,45.73
2019-02-11T06:37:12.126Z,45.05
2019-02-11T06:38:15.816Z,43.70
2019-02-11T06:39:19.494Z,43.68
2019-02-11T06:40:23.156Z,40.83
2019-02-11T06:41:26.804Z,39.18
2019-02-11T06:42:30.486Z,37.78
2019-02-11T06:43:34.177Z,36.03
2019-02-11T06:44:37.821Z,35.43
2019-02-11T06:45:41.908Z,40.45
2019-02-11T06:46:45.574Z,34.90
2019-02-11T06:47:49.368Z,33.55
2019-02-11T06:48:53.057Z,29.63
2019-02-11T06:49:56.750Z,29.98
2019-02-11T06:51:00.956Z,28.92
2019-02-11T06:52:05.058Z,27.87
2019-02-11T06:53:08.763Z,34.80
2019-02-11T06:54:12.441Z,35.23
2019-02-11T06:55:16.227Z,37.60
2019-02-11T06:56:19.930Z,34.50
2019-02-11T06:57:23.593Z,36.00
2019-02-11T06:58:27.312Z,37.63
2019-02-11T06:59:30.964Z,40.53
2019-02-11T07:00:34.693Z,36.80
2019-02-11T07:01:38.356Z,36.13
2019-02-11T07:02:42.005Z,34.60
2019-02-11T07:03:45.888Z,36.67
2019-02-11T07:04:49.581Z,44.77
2019-02-11T07:05:53.258Z,63.47
2019-02-11T07:06:56.936Z,80.00
2019-02-11T07:08:00.519Z,87.83
2019-02-11T07:09:05.407Z,58.30
2019-02-11T07:10:11.239Z,44.80
2019-02-11T07:11:14.925Z,35.40
2019-02-11T07:12:18.713Z,33.17
2019-02-11T07:13:22.401Z,32.70
2019-02-11T07:14:26.095Z,31.90
2019-02-11T07:15:29.788Z,31.90
2019-02-11T07:16:33.620Z,32.17
2019-02-11T07:17:37.463Z,30.03
2019-02-11T07:18:41.107Z,28.67
2019-02-11T07:19:44.788Z,30.10
2019-02-11T07:20:48.569Z,29.67
2019-02-11T07:21:52.251Z,26.87
2019-02-11T07:22:55.901Z,28.27
2019-02-11T07:23:59.642Z,30.20
2019-02-11T07:25:03.438Z,30.87
2019-02-11T07:26:07.126Z,29.90
2019-02-11T07:27:10.820Z,29.33
2019-02-11T07:28:14.924Z,28.33
2019-02-11T07:29:18.681Z,26.53
2019-02-11T07:30:22.301Z,25.13
2019-02-11T07:31:26.242Z,25.67
2019-02-11T07:32:30.006Z,25.37
2019-02-11T07:33:33.701Z,25.77
2019-02-11T07:34:37.395Z,26.87
2019-02-11T07:35:41.540Z,22.87
2019-02-11T07:36:45.201Z,25.20
2019-02-11T07:37:48.986Z,21.97
2019-02-11T07:38:52.707Z,20.23
2019-02-11T07:39:56.478Z,20.43
2019-02-11T07:41:00.170Z,22.40
2019-02-11T07:42:11.536Z,22.90
2019-02-11T07:43:18.794Z,23.30
2019-02-11T07:44:23.983Z,20.77
2019-02-11T07:45:30.296Z,21.33
2019-02-11T07:46:35.843Z,22.03
2019-02-11T07:47:39.524Z,19.93
2019-02-11T07:48:43.326Z,19.77
2019-02-11T07:49:47.052Z,20.17
2019-02-11T07:50:50.912Z,18.97
2019-02-11T07:51:54.710Z,19.90
2019-02-11T07:52:58.408Z,18.83
2019-02-11T07:54:02.101Z,19.93
2019-02-11T07:55:06.254Z,19.63
2019-02-11T07:56:09.992Z,19.50
2019-02-11T07:57:15.622Z,22.00
2019-02-11T07:58:20.811Z,21.00
2019-02-11T07:59:24.494Z,19.13
2019-02-11T08:00:28.222Z,18.60
2019-02-11T08:01:31.871Z,20.40
2019-02-11T08:02:35.877Z,18.30
2019-02-11T08:03:39.920Z,19.53
2019-02-11T08:04:43.638Z,19.70
2019-02-11T08:05:47.439Z,18.63
2019-02-11T08:06:51.535Z,19.13
2019-02-11T08:07:55.332Z,18.60
2019-02-11T08:08:58.915Z,18.27
2019-02-11T08:10:02.668Z,18.23
2019-02-11T08:11:06.384Z,18.30
2019-02-11T08:12:09.971Z,19.00
2019-02-11T08:13:13.695Z,17.40
2019-02-11T08:14:17.389Z,17.63
2019-02-11T08:15:21.087Z,16.50
2019-02-11T08:16:24.776Z,17.50
2019-02-11T08:17:28.712Z,18.13
2019-02-11T08:18:34.114Z,17.77
2019-02-11T08:19:37.775Z,18.13
2019-02-11T08:20:41.556Z,19.40
2019-02-11T08:21:45.637Z,19.10
2019-02-11T08:22:49.389Z,17.33
2019-02-11T08:23:53.196Z,19.03
2019-02-11T08:24:56.879Z,19.80
2019-02-11T08:26:02.721Z,18.43
2019-02-11T08:27:12.834Z,18.13
2019-02-11T08:28:19.416Z,19.20
2019-02-11T08:29:17.282Z,19.07
2019-02-11T08:30:21.092Z,17.47
2019-02-11T08:31:24.985Z,18.47
2019-02-11T08:32:31.546Z,19.40
2019-02-11T08:33:35.209Z,18.07
2019-02-11T08:34:38.967Z,17.03
2019-02-11T08:35:42.668Z,17.67
2019-02-11T08:36:46.946Z,18.67
2019-02-11T08:37:50.727Z,16.80
2019-02-11T08:38:54.398Z,17.53
2019-02-11T08:39:58.050Z,18.40
2019-02-11T08:41:01.706Z,18.93
2019-02-11T08:42:05.800Z,17.47
2019-02-11T08:43:09.443Z,18.33
2019-02-11T08:44:13.171Z,16.37
2019-02-11T08:45:16.897Z,18.67
2019-02-11T08:46:20.571Z,17.00
2019-02-11T08:47:24.271Z,15.87
2019-02-11T08:48:28.066Z,17.10
2019-02-11T08:49:33.812Z,15.43
2019-02-11T08:50:39.153Z,16.23
2019-02-11T08:51:42.835Z,16.80
2019-02-11T08:52:46.577Z,15.40
2019-02-11T08:53:50.327Z,16.90
2019-02-11T08:54:54.015Z,14.77
2019-02-11T08:55:57.703Z,15.67
2019-02-11T08:57:01.434Z,15.87
2019-02-11T08:58:05.199Z,13.87
2019-02-11T08:59:08.899Z,13.90
2019-02-11T09:00:13.134Z,14.93
2019-02-11T09:01:16.795Z,16.43
2019-02-11T09:02:20.594Z,16.43
2019-02-11T09:03:24.276Z,16.77
2019-02-11T09:04:31.218Z,14.20
2019-02-11T09:05:35.042Z,14.63
2019-02-11T09:06:38.836Z,15.07
2019-02-11T09:07:42.544Z,15.07
2019-02-11T09:08:46.432Z,14.00
2019-02-11T09:09:50.228Z,13.50
2019-02-11T09:10:53.914Z,14.70
2019-02-11T09:11:57.722Z,14.90
2019-02-11T09:13:01.508Z,14.97
2019-02-11T09:14:05.210Z,15.60
2019-02-11T09:15:11.646Z,15.63
2019-02-11T09:16:15.454Z,14.87
2019-02-11T09:17:19.263Z,12.47
2019-02-11T09:18:26.836Z,13.63
2019-02-11T09:19:30.535Z,12.80
2019-02-11T09:20:34.904Z,12.20
2019-02-11T09:21:38.635Z,12.33
2019-02-11T09:22:42.428Z,12.77
2019-02-11T09:23:47.958Z,12.57
2019-02-11T09:24:51.711Z,12.73
2019-02-11T09:25:55.452Z,13.00
2019-02-11T09:26:59.250Z,12.47
2019-02-11T09:28:04.561Z,13.40
2019-02-11T09:29:08.373Z,11.07
2019-02-11T09:30:15.144Z,10.63
2019-02-11T09:31:20.375Z,10.47
2019-02-11T09:32:24.079Z,10.30
2019-02-11T09:33:27.740Z,10.27
2019-02-11T09:34:34.671Z,12.77
2019-02-11T09:35:38.594Z,11.33
2019-02-11T09:36:42.326Z,12.93
2019-02-11T09:37:45.981Z,11.60
2019-02-11T09:38:49.650Z,12.37
2019-02-11T09:39:53.409Z,11.90
2019-02-11T09:40:57.189Z,12.13
2019-02-11T09:42:00.883Z,12.97
2019-02-11T09:43:04.574Z,12.33
2019-02-11T09:44:08.272Z,12.67
2019-02-11T09:45:17.209Z,12.53
2019-02-11T09:46:21.806Z,12.20
2019-02-11T09:47:25.599Z,12.97
2019-02-11T09:48:29.390Z,12.50
2019-02-11T09:49:33.185Z,12.67
2019-02-11T09:50:45.348Z,12.57
2019-02-11T09:51:49.525Z,12.50
2019-02-11T09:52:53.293Z,12.20
2019-02-11T09:53:57.040Z,12.33
2019-02-11T09:55:00.769Z,12.13
2019-02-11T09:56:04.981Z,11.03
2019-02-11T09:57:08.675Z,12.63
2019-02-11T09:58:12.359Z,12.90
2019-02-11T09:59:16.153Z,13.17
2019-02-11T10:00:20.051Z,12.87
2019-02-11T10:01:23.852Z,13.53
2019-02-11T10:02:27.985Z,12.50
2019-02-11T10:03:31.744Z,11.90
2019-02-11T10:04:36.737Z,12.70
2019-02-11T10:05:40.461Z,11.50
2019-02-11T10:06:44.289Z,11.80
2019-02-11T10:07:48.064Z,11.67
2019-02-11T10:08:51.850Z,13.03
2019-02-11T10:09:55.595Z,12.63
2019-02-11T10:10:59.198Z,12.37
2019-02-11T10:12:03.820Z,11.03
2019-02-11T10:13:07.647Z,12.27
2019-02-11T10:14:11.432Z,11.13
2019-02-11T10:15:15.788Z,10.47
2019-02-11T10:16:19.707Z,12.00
2019-02-11T10:17:29.631Z,11.17
2019-02-11T10:18:29.196Z,10.63
2019-02-11T10:19:34.874Z,11.57
2019-02-11T10:20:39.107Z,11.07
2019-02-11T10:21:43.036Z,11.97
2019-02-11T10:22:47.056Z,32.43
2019-02-11T10:23:51.575Z,15.37
2019-02-11T10:24:56.834Z,12.40
2019-02-11T10:26:00.510Z,10.17
2019-02-11T10:27:04.569Z,11.17
2019-02-11T10:28:10.539Z,11.27
2019-02-11T10:29:14.519Z,9.70
2019-02-11T10:30:18.716Z,9.90
2019-02-11T10:31:22.515Z,12.30
2019-02-11T10:32:26.754Z,10.50
2019-02-11T10:33:37.240Z,15.87
2019-02-11T10:34:41.002Z,15.67
2019-02-11T10:35:44.857Z,16.73
2019-02-11T10:36:48.628Z,18.43
2019-02-11T10:37:52.252Z,13.73
2019-02-11T10:38:55.992Z,13.67
2019-02-11T10:39:59.893Z,11.63
2019-02-11T10:41:03.639Z,11.47
2019-02-11T10:42:07.316Z,12.43
2019-02-11T10:43:11.064Z,12.93
2019-02-11T10:44:14.716Z,14.17
2019-02-11T10:45:18.483Z,12.67
2019-02-11T10:46:22.137Z,12.17
2019-02-11T10:47:25.793Z,11.93
2019-02-11T10:48:29.590Z,11.23
2019-02-11T10:49:33.312Z,12.67
2019-02-11T10:50:37.000Z,10.90
2019-02-11T10:51:40.728Z,10.40
2019-02-11T10:52:44.394Z,10.33
2019-02-11T10:53:48.062Z,10.40
2019-02-11T10:54:51.725Z,11.10
2019-02-11T10:55:55.778Z,12.30
2019-02-11T10:56:59.435Z,11.23
2019-02-11T10:58:03.098Z,11.07
2019-02-11T10:59:06.757Z,11.27
2019-02-11T11:00:16.006Z,11.80
2019-02-11T11:01:19.701Z,10.37
2019-02-11T11:02:23.438Z,10.47
2019-02-11T11:03:27.171Z,10.83
2019-02-11T11:04:31.164Z,11.90
2019-02-11T11:05:34.822Z,12.37
2019-02-11T11:06:38.823Z,11.40
2019-02-11T11:07:42.520Z,10.23
2019-02-11T11:08:46.115Z,11.53
2019-02-11T11:09:49.836Z,9.77
2019-02-11T11:10:53.497Z,10.47
2019-02-11T11:11:57.213Z,11.13
2019-02-11T11:13:00.986Z,11.47
2019-02-11T11:14:06.089Z,10.27
2019-02-11T11:15:10.725Z,10.37
2019-02-11T11:16:14.421Z,10.27
2019-02-11T11:17:18.109Z,9.67
2019-02-11T11:18:23.238Z,10.50
2019-02-11T11:19:27.344Z,10.07
2019-02-11T11:20:31.530Z,11.03
2019-02-11T11:21:35.444Z,9.87
2019-02-11T11:22:39.247Z,9.17
2019-02-11T11:23:42.935Z,9.23
2019-02-11T11:24:46.598Z,8.87
2019-02-11T11:25:50.251Z,9.33
2019-02-11T11:26:53.905Z,11.37
2019-02-11T11:27:57.712Z,11.17
2019-02-11T11:29:01.809Z,10.47
2019-02-11T11:30:12.019Z,9.03
2019-02-11T11:31:15.607Z,8.17
2019-02-11T11:32:19.646Z,8.57
2019-02-11T11:33:23.448Z,8.47
2019-02-11T11:34:27.138Z,9.13
2019-02-11T11:35:30.936Z,11.27
2019-02-11T11:36:34.726Z,9.97
2019-02-11T11:37:38.400Z,9.13
2019-02-11T11:38:44.957Z,10.07
2019-02-11T11:39:48.689Z,12.77
2019-02-11T11:40:52.475Z,46.77
2019-02-11T11:41:56.124Z,10.70
2019-02-11T11:42:59.958Z,11.33
2019-02-11T11:44:03.665Z,11.83
2019-02-11T11:45:13.189Z,11.37
2019-02-11T11:46:16.840Z,11.23
2019-02-11T11:47:20.576Z,10.47
2019-02-11T11:48:24.262Z,9.83
2019-02-11T11:49:30.369Z,11.97
2019-02-11T11:50:34.111Z,9.93
2019-02-11T11:51:37.771Z,9.97
2019-02-11T11:52:41.426Z,9.50
2019-02-11T11:53:45.086Z,10.17
2019-02-11T11:54:48.881Z,10.53
2019-02-11T11:55:52.601Z,11.27
2019-02-11T11:56:59.296Z,15.33
2019-02-11T11:58:02.046Z,17.17
2019-02-11T11:59:05.748Z,13.03
2019-02-11T12:00:24.374Z,13.13
2019-02-11T12:01:29.980Z,10.07
2019-02-11T12:02:33.711Z,10.63
2019-02-11T12:03:37.476Z,11.07
2019-02-11T12:04:41.199Z,10.93
2019-02-11T12:05:45.066Z,11.27
2019-02-11T12:06:48.765Z,14.93
2019-02-11T12:07:52.599Z,11.07
2019-02-11T12:08:59.207Z,12.03
2019-02-11T12:10:01.789Z,13.27
2019-02-11T12:11:05.584Z,11.07
2019-02-11T12:12:12.933Z,11.93
2019-02-11T12:13:22.278Z,10.80
2019-02-11T12:14:20.741Z,10.20
2019-02-11T12:15:27.127Z,10.83
2019-02-11T12:16:31.113Z,10.10
2019-02-11T12:17:34.806Z,10.33
2019-02-11T12:18:38.463Z,10.07
2019-02-11T12:19:42.186Z,8.70
2019-02-11T12:20:45.884Z,9.10
2019-02-11T12:21:49.682Z,10.30
2019-02-11T12:22:53.373Z,9.80
2019-02-11T12:23:57.022Z,9.77
2019-02-11T12:25:00.663Z,10.10
2019-02-11T12:26:04.637Z,9.10
2019-02-11T12:27:08.220Z,9.93
2019-02-11T12:28:11.858Z,9.30
2019-02-11T12:29:15.563Z,8.90
2019-02-11T12:30:26.859Z,9.40
2019-02-11T12:31:30.561Z,11.40
2019-02-11T12:32:34.396Z,10.47
2019-02-11T12:33:38.191Z,16.77
2019-02-11T12:34:41.842Z,11.40
2019-02-11T12:35:45.395Z,9.83
2019-02-11T12:36:52.716Z,9.27
2019-02-11T12:37:56.453Z,8.10
2019-02-11T12:39:00.001Z,8.73
2019-02-11T12:40:04.241Z,9.30
2019-02-11T12:41:07.950Z,8.63
2019-02-11T12:42:11.659Z,8.70
2019-02-11T12:43:15.325Z,8.50
2019-02-11T12:44:19.346Z,7.90
2019-02-11T12:45:24.765Z,9.20
2019-02-11T12:46:28.418Z,8.40
2019-02-11T12:47:32.143Z,8.50
2019-02-11T12:48:35.807Z,8.00
2019-02-11T12:49:39.513Z,7.23
2019-02-11T12:50:43.144Z,7.90
2019-02-11T12:51:46.783Z,8.53
2019-02-11T12:52:50.482Z,8.30
2019-02-11T12:53:54.222Z,8.47
2019-02-11T12:54:57.935Z,8.37
2019-02-11T12:56:02.645Z,8.80
2019-02-11T12:57:06.787Z,10.27
2019-02-11T12:58:10.418Z,9.10
2019-02-11T12:59:14.098Z,10.20
2019-02-11T13:00:24.451Z,10.17
2019-02-11T13:01:28.095Z,9.77
2019-02-11T13:02:31.722Z,9.93
2019-02-11T13:03:35.437Z,9.67
2019-02-11T13:04:39.204Z,10.20
2019-02-11T13:05:45.542Z,11.10
2019-02-11T13:06:48.267Z,9.17
2019-02-11T13:07:53.972Z,9.00
2019-02-11T13:08:57.661Z,9.70
2019-02-11T13:10:01.453Z,9.77
2019-02-11T13:11:05.361Z,10.90
2019-02-11T13:12:09.156Z,9.27
2019-02-11T13:13:12.869Z,14.33
2019-02-11T13:14:16.757Z,11.43
2019-02-11T13:15:52.829Z,10.73
2019-02-11T13:16:25.870Z,9.90
2019-02-11T13:17:33.705Z,9.67
2019-02-11T13:18:39.108Z,10.67
2019-02-11T13:19:40.430Z,10.23
2019-02-11T13:20:44.194Z,10.60
2019-02-11T13:21:47.901Z,11.27
2019-02-11T13:22:52.002Z,10.30
2019-02-11T13:23:55.702Z,10.80
2019-02-11T13:24:59.345Z,10.70
2019-02-11T13:26:03.284Z,10.93
2019-02-11T13:27:07.025Z,11.23
2019-02-11T13:28:10.697Z,10.77
2019-02-11T13:29:14.294Z,12.20
2019-02-11T13:30:22.441Z,11.87
2019-02-11T13:31:26.157Z,11.67
2019-02-11T13:32:29.799Z,11.63
2019-02-11T13:33:33.536Z,10.70
2019-02-11T13:34:37.222Z,10.70
2019-02-11T13:35:40.876Z,11.43
2019-02-11T13:36:44.624Z,10.90
2019-02-11T13:37:54.770Z,12.00
2019-02-11T13:38:56.448Z,12.30
2019-02-11T13:40:00.208Z,12.37
2019-02-11T13:41:03.945Z,11.97
2019-02-11T13:42:07.603Z,10.97
2019-02-11T13:43:11.318Z,10.87
2019-02-11T13:44:15.038Z,11.07
2019-02-11T13:45:22.644Z,10.73
2019-02-11T13:46:26.342Z,11.27